createdAt,value
2022-12-04T00:01:31.571Z,1.28
2022-12-04T00:04:02.190Z,1.29
2022-12-04T00:06:32.279Z,1.30
2022-12-04T00:09:02.783Z,1.31
2022-12-04T00:11:33.862Z,1.33
2022-12-04T00:14:07.204Z,1.31
2022-12-04T00:16:38.078Z,1.25
2022-12-04T00:19:07.074Z,1.19
2022-12-04T00:21:37.208Z,1.16
2022-12-04T00:24:08.017Z,1.12
2022-12-04T00:26:36.843Z,1.11
2022-12-04T00:29:08.964Z,1.11
2022-12-04T00:31:40.698Z,1.08
2022-12-04T00:34:11.170Z,1.11
2022-12-04T00:36:41.133Z,1.10
2022-12-04T00:39:11.447Z,1.05
2022-12-04T00:41:43.517Z,1.06
2022-12-04T00:44:13.684Z,1.11
2022-12-04T00:46:44.548Z,1.10
2022-12-04T00:49:14.779Z,1.07
2022-12-04T00:51:44.971Z,1.06
2022-12-04T00:54:15.174Z,1.05
2022-12-04T00:56:45.439Z,1.03
2022-12-04T00:59:15.924Z,1.00
2022-12-04T01:01:46.217Z,0.97
2022-12-04T01:04:16.944Z,0.93
2022-12-04T01:06:47.581Z,0.90
2022-12-04T01:09:17.842Z,0.93
2022-12-04T01:11:48.054Z,0.93
2022-12-04T01:14:18.571Z,0.90
2022-12-04T01:16:49.035Z,0.90
2022-12-04T01:19:18.857Z,0.91
2022-12-04T01:21:49.001Z,0.92
2022-12-04T01:24:19.446Z,0.92
2022-12-04T01:26:49.897Z,0.92
2022-12-04T01:29:20.426Z,0.90
2022-12-04T01:31:50.601Z,0.89
2022-12-04T01:34:20.348Z,0.90
2022-12-04T01:36:51.596Z,0.88
2022-12-04T01:39:21.610Z,0.89
2022-12-04T01:41:51.513Z,0.91
2022-12-04T01:44:24.008Z,0.90
2022-12-04T01:46:56.892Z,0.85
2022-12-04T01:49:40.137Z,0.78
2022-12-04T01:52:20.284Z,0.72
2022-12-04T01:55:00.782Z,0.71
2022-12-04T01:57:33.043Z,0.75
2022-12-04T02:00:12.753Z,0.73
2022-12-04T02:02:46.350Z,0.69
2022-12-04T02:05:19.787Z,0.69
2022-12-04T02:07:53.634Z,0.66
2022-12-04T02:10:34.456Z,0.63
2022-12-04T02:13:48.916Z,0.59
2022-12-04T02:16:48.629Z,0.49
2022-12-04T02:19:51.615Z,0.42
2022-12-04T02:22:56.305Z,0.36
2022-12-04T02:25:26.978Z,0.37
2022-12-04T02:28:30.224Z,0.36
2022-12-04T02:31:02.932Z,0.24
2022-12-04T02:33:43.695Z,0.21
2022-12-04T02:36:42.691Z,0.21
2022-12-04T02:39:25.296Z,0.18
2022-12-04T02:42:03.803Z,0.21
2022-12-04T02:44:54.254Z,0.23
2022-12-04T02:47:27.509Z,0.33
2022-12-04T02:50:05.878Z,0.37
2022-12-04T02:52:47.102Z,0.40
2022-12-04T02:55:44.208Z,0.49
2022-12-04T02:58:32.828Z,0.56
2022-12-04T03:01:20.425Z,0.66
2022-12-04T03:04:12.299Z,0.70
2022-12-04T03:06:46.384Z,0.64
2022-12-04T03:09:37.194Z,0.69
2022-12-04T03:12:20.954Z,0.76
2022-12-04T03:15:08.953Z,0.81
2022-12-04T03:17:48.383Z,0.84
2022-12-04T03:20:20.205Z,0.82
2022-12-04T03:22:58.070Z,0.79
2022-12-04T03:25:40.295Z,0.78
2022-12-04T03:28:43.445Z,0.81
2022-12-04T03:31:16.666Z,0.79
2022-12-04T03:33:50.845Z,0.76
2022-12-04T03:36:29.925Z,0.70
2022-12-04T03:39:13.415Z,0.62
2022-12-04T03:42:04.627Z,0.54
2022-12-04T03:44:45.062Z,0.51
2022-12-04T03:47:34.190Z,0.51
2022-12-04T03:50:09.541Z,0.51
2022-12-04T03:52:51.707Z,0.44
2022-12-04T03:55:24.517Z,0.44
2022-12-04T03:58:00.541Z,0.43
2022-12-04T04:00:33.529Z,0.42
2022-12-04T04:03:34.667Z,0.41
2022-12-04T04:06:16.848Z,0.40
2022-12-04T04:08:54.061Z,0.39
2022-12-04T04:11:49.833Z,0.39
2022-12-04T04:14:55.537Z,0.34
2022-12-04T04:17:50.835Z,0.33
2022-12-04T04:20:49.196Z,0.32
2022-12-04T04:23:41.777Z,0.35
2022-12-04T04:26:15.912Z,0.38
2022-12-04T04:28:46.990Z,0.36
2022-12-04T04:32:02.787Z,0.32
2022-12-04T04:34:53.144Z,0.25
2022-12-04T04:37:41.774Z,0.23
2022-12-04T04:40:36.389Z,0.20
2022-12-04T04:43:17.885Z,0.22
2022-12-04T04:46:22.106Z,0.23
2022-12-04T04:48:59.461Z,0.21
2022-12-04T04:51:34.708Z,0.23
2022-12-04T04:54:09.564Z,0.25
2022-12-04T04:56:48.181Z,0.27
2022-12-04T04:59:19.006Z,0.29
2022-12-04T05:01:49.607Z,0.31
2022-12-04T05:04:20.096Z,0.29
2022-12-04T05:06:50.150Z,0.28
2022-12-04T05:09:20.386Z,0.30
2022-12-04T05:11:50.475Z,0.30
2022-12-04T05:14:20.803Z,0.32
2022-12-04T05:16:50.778Z,0.32
2022-12-04T05:19:42.828Z,0.30
2022-12-04T05:22:13.721Z,0.29
2022-12-04T05:24:44.111Z,0.28
2022-12-04T05:27:14.048Z,0.27
2022-12-04T05:29:44.205Z,0.26
2022-12-04T05:32:14.966Z,0.25
2022-12-04T05:34:47.587Z,0.26
2022-12-04T05:37:17.996Z,0.25
2022-12-04T05:39:48.279Z,0.26
2022-12-04T05:42:18.734Z,0.28
2022-12-04T05:44:50.522Z,0.29
2022-12-04T05:47:20.516Z,0.32
2022-12-04T05:49:50.582Z,0.35
2022-12-04T05:52:20.923Z,0.34
2022-12-04T05:54:51.416Z,0.35
2022-12-04T05:57:21.051Z,0.35
2022-12-04T05:59:53.948Z,0.35
2022-12-04T06:02:24.552Z,0.36
2022-12-04T06:04:54.556Z,0.37
2022-12-04T06:07:23.421Z,0.39
2022-12-04T06:09:55.960Z,0.41
2022-12-04T06:12:25.915Z,0.42
2022-12-04T06:14:56.143Z,0.42
2022-12-04T06:17:25.987Z,0.41
2022-12-04T06:19:56.750Z,0.41
2022-12-04T06:22:26.843Z,0.42
2022-12-04T06:24:57.208Z,0.42
2022-12-04T06:27:28.281Z,0.44
2022-12-04T06:29:59.050Z,0.42
2022-12-04T06:32:29.432Z,0.44
2022-12-04T06:34:59.379Z,0.44
2022-12-04T06:37:28.256Z,0.45
2022-12-04T06:39:58.390Z,0.46
2022-12-04T06:42:28.678Z,0.48
2022-12-04T06:44:58.138Z,0.47
2022-12-04T06:47:28.170Z,0.48
2022-12-04T06:49:57.796Z,0.53
2022-12-04T06:52:28.191Z,0.56
2022-12-04T06:54:59.437Z,0.58
2022-12-04T06:57:29.340Z,0.59
2022-12-04T06:59:59.048Z,0.60
2022-12-04T07:02:29.390Z,0.61
2022-12-04T07:04:59.660Z,0.60
2022-12-04T07:07:29.684Z,0.61
2022-12-04T07:09:59.476Z,0.62
2022-12-04T07:12:29.544Z,0.62
2022-12-04T07:14:59.073Z,0.62
2022-12-04T07:17:28.641Z,0.58
2022-12-04T07:19:57.749Z,0.58
2022-12-04T07:22:28.625Z,0.64
2022-12-04T07:24:58.815Z,0.69
2022-12-04T07:27:31.868Z,0.74
2022-12-04T07:30:01.514Z,0.75
2022-12-04T07:32:31.984Z,0.77
2022-12-04T07:35:02.120Z,0.80
2022-12-04T07:37:32.594Z,0.83
2022-12-04T07:40:04.163Z,0.87
2022-12-04T07:42:34.085Z,0.93
2022-12-04T07:45:04.205Z,0.97
2022-12-04T07:47:36.917Z,1.01
2022-12-04T07:50:09.209Z,1.04
2022-12-04T07:52:40.533Z,1.05
2022-12-04T07:55:11.053Z,1.07
2022-12-04T07:57:41.519Z,1.11
2022-12-04T08:00:12.550Z,1.14
2022-12-04T08:02:42.642Z,1.14
2022-12-04T08:05:11.532Z,1.15
2022-12-04T08:07:41.681Z,1.17
2022-12-04T08:10:12.130Z,1.23
2022-12-04T08:12:42.191Z,1.30
2022-12-04T08:15:12.250Z,1.37
2022-12-04T08:17:44.214Z,1.45
2022-12-04T08:20:14.259Z,1.51
2022-12-04T08:22:44.157Z,1.52
2022-12-04T08:25:13.744Z,1.54
2022-12-04T08:27:47.773Z,1.54
2022-12-04T08:30:18.218Z,1.55
2022-12-04T08:32:48.778Z,1.55
2022-12-04T08:35:18.856Z,1.58
2022-12-04T08:37:48.853Z,1.62
2022-12-04T08:40:18.789Z,1.66
2022-12-04T08:42:48.805Z,1.65
2022-12-04T08:45:18.805Z,1.63
2022-12-04T08:47:52.400Z,1.62
2022-12-04T08:50:23.314Z,1.64
2022-12-04T08:52:53.356Z,1.68
2022-12-04T08:55:23.512Z,1.72
2022-12-04T08:57:53.707Z,1.77
2022-12-04T09:00:26.447Z,1.80
2022-12-04T09:02:56.495Z,1.83
2022-12-04T09:05:26.649Z,1.85
2022-12-04T09:07:59.585Z,1.88
2022-12-04T09:10:30.922Z,1.96
2022-12-04T09:13:01.043Z,2.04
2022-12-04T09:15:38.964Z,2.15
2022-12-04T09:18:14.002Z,2.28
2022-12-04T09:20:44.524Z,2.35
2022-12-04T09:23:14.941Z,2.40
2022-12-04T09:25:45.779Z,2.45
2022-12-04T09:28:16.027Z,2.50
2022-12-04T09:30:47.068Z,2.57
2022-12-04T09:33:16.952Z,2.62
2022-12-04T09:35:47.276Z,2.70
2022-12-04T09:38:17.655Z,2.74
2022-12-04T09:41:11.502Z,2.75
2022-12-04T09:44:02.479Z,2.71
2022-12-04T09:46:51.399Z,2.63
2022-12-04T09:49:30.234Z,2.60
2022-12-04T09:52:04.252Z,2.71
2022-12-04T09:54:42.957Z,2.86
2022-12-04T09:57:42.753Z,2.97
2022-12-04T10:00:16.147Z,3.08
2022-12-04T10:02:56.006Z,3.12
2022-12-04T10:05:50.864Z,3.14
2022-12-04T10:08:32.400Z,3.12
2022-12-04T10:11:01.908Z,3.07
2022-12-04T10:13:47.647Z,3.08
2022-12-04T10:16:29.650Z,3.12
2022-12-04T10:19:36.589Z,3.13
2022-12-04T10:22:13.186Z,3.14
2022-12-04T10:24:54.074Z,3.18
2022-12-04T10:27:46.722Z,3.27
2022-12-04T10:30:19.836Z,3.38
2022-12-04T10:33:12.389Z,3.44
2022-12-04T10:35:45.826Z,3.53
2022-12-04T10:38:39.069Z,3.59
2022-12-04T10:41:34.558Z,3.62
2022-12-04T10:44:05.569Z,3.74
2022-12-04T10:46:36.309Z,3.88
2022-12-04T10:49:10.487Z,4.03
2022-12-04T10:51:42.341Z,4.20
2022-12-04T10:54:26.308Z,4.44
2022-12-04T10:56:59.362Z,4.70
2022-12-04T10:59:30.362Z,4.90
2022-12-04T11:02:35.076Z,5.03
2022-12-04T11:05:23.132Z,5.06
2022-12-04T11:07:55.415Z,5.11
2022-12-04T11:10:43.832Z,5.10
2022-12-04T11:13:20.976Z,5.05
2022-12-04T11:15:54.260Z,5.06
2022-12-04T11:18:27.094Z,5.05
2022-12-04T11:21:07.567Z,5.02
2022-12-04T11:23:50.210Z,5.01
2022-12-04T11:26:42.992Z,4.99
2022-12-04T11:29:18.784Z,4.98
2022-12-04T11:31:52.352Z,5.00
2022-12-04T11:34:27.459Z,5.04
2022-12-04T11:36:58.949Z,5.09
2022-12-04T11:39:35.733Z,5.13
2022-12-04T11:42:36.258Z,5.18
2022-12-04T11:45:26.824Z,5.22
2022-12-04T11:48:02.459Z,5.20
2022-12-04T11:50:48.664Z,5.25
2022-12-04T11:53:23.838Z,5.34
2022-12-04T11:56:25.409Z,5.45
2022-12-04T11:59:13.730Z,5.62
2022-12-04T12:02:12.249Z,5.74
2022-12-04T12:04:54.912Z,5.79
2022-12-04T12:07:49.642Z,5.77
2022-12-04T12:10:28.604Z,5.77
2022-12-04T12:13:10.954Z,5.72
2022-12-04T12:15:57.046Z,5.69
2022-12-04T12:18:35.394Z,5.69
2022-12-04T12:21:18.764Z,5.67
2022-12-04T12:24:16.790Z,5.70
2022-12-04T12:26:47.618Z,5.71
2022-12-04T12:29:49.993Z,5.78
2022-12-04T12:32:44.938Z,5.73
2022-12-04T12:35:28.381Z,5.69
2022-12-04T12:38:06.473Z,5.64
2022-12-04T12:40:45.593Z,5.55
2022-12-04T12:43:36.242Z,5.50
2022-12-04T12:46:49.404Z,5.53
2022-12-04T12:49:25.860Z,5.59
2022-12-04T12:52:42.727Z,5.63
2022-12-04T12:55:33.789Z,5.68
2022-12-04T12:58:26.152Z,5.71
2022-12-04T13:01:25.153Z,5.79
2022-12-04T13:04:28.842Z,5.87
2022-12-04T13:07:12.955Z,5.92
2022-12-04T13:09:51.514Z,5.99
2022-12-04T13:12:23.225Z,6.03
2022-12-04T13:14:52.597Z,6.08
2022-12-04T13:17:37.716Z,6.16
2022-12-04T13:20:37.937Z,6.24
2022-12-04T13:23:28.918Z,6.28
2022-12-04T13:26:36.665Z,6.32
2022-12-04T13:30:02.397Z,6.34
2022-12-04T13:32:50.785Z,6.32
2022-12-04T13:35:44.913Z,6.33
2022-12-04T13:38:24.130Z,6.31
2022-12-04T13:40:57.758Z,6.29
2022-12-04T13:43:42.966Z,6.23
2022-12-04T13:46:31.514Z,6.18
2022-12-04T13:49:27.828Z,6.11
2022-12-04T13:51:59.588Z,6.06
2022-12-04T13:54:37.402Z,6.03
2022-12-04T13:57:19.902Z,5.97
2022-12-04T13:59:50.504Z,5.94
2022-12-04T14:02:26.799Z,5.95
2022-12-04T14:05:08.562Z,5.95
2022-12-04T14:08:05.710Z,5.93
2022-12-04T14:10:39.821Z,5.85
2022-12-04T14:13:24.372Z,5.73
2022-12-04T14:16:32.948Z,5.68
2022-12-04T14:19:04.787Z,5.69
2022-12-04T14:21:42.435Z,5.68
2022-12-04T14:24:47.860Z,5.69
2022-12-04T14:27:46.496Z,5.68
2022-12-04T14:30:24.207Z,5.68
2022-12-04T14:33:24.742Z,5.60
2022-12-04T14:35:59.958Z,5.53
2022-12-04T14:38:32.778Z,5.49
2022-12-04T14:41:02.113Z,5.42
2022-12-04T14:43:40.130Z,5.35
2022-12-04T14:46:37.567Z,5.26
2022-12-04T14:49:26.368Z,5.16
2022-12-04T14:52:12.744Z,5.04
2022-12-04T14:55:07.492Z,4.93
2022-12-04T14:58:30.376Z,4.77
2022-12-04T15:01:08.642Z,4.62
2022-12-04T15:03:46.461Z,4.56
2022-12-04T15:06:21.053Z,4.41
2022-12-04T15:09:20.871Z,4.28
2022-12-04T15:12:18.768Z,4.21
2022-12-04T15:14:50.682Z,4.16
2022-12-04T15:17:20.628Z,4.11
2022-12-04T15:19:50.756Z,4.09
2022-12-04T15:22:29.182Z,4.04
2022-12-04T15:25:00.422Z,3.91
2022-12-04T15:27:32.991Z,3.81
2022-12-04T15:30:04.525Z,3.75
2022-12-04T15:32:35.168Z,3.71
2022-12-04T15:35:17.541Z,3.68
2022-12-04T15:37:47.541Z,3.64
2022-12-04T15:40:23.907Z,3.57
2022-12-04T15:42:55.484Z,3.50
2022-12-04T15:45:35.481Z,3.42
2022-12-04T15:48:05.524Z,3.36
2022-12-04T15:50:37.721Z,3.32
2022-12-04T15:53:22.173Z,3.25
2022-12-04T15:56:08.147Z,3.21
2022-12-04T15:58:50.440Z,3.16
2022-12-04T16:01:21.482Z,3.10
2022-12-04T16:03:54.327Z,3.02
2022-12-04T16:06:24.558Z,2.97
2022-12-04T16:09:13.168Z,2.90
2022-12-04T16:11:44.281Z,2.84
2022-12-04T16:14:16.300Z,2.77
2022-12-04T16:16:50.774Z,2.72
2022-12-04T16:19:37.050Z,2.67
2022-12-04T16:22:20.790Z,2.62
2022-12-04T16:24:51.905Z,2.57
2022-12-04T16:27:24.113Z,2.53
2022-12-04T16:29:56.595Z,2.51
2022-12-04T16:32:31.796Z,2.49
2022-12-04T16:35:02.038Z,2.48
2022-12-04T16:37:32.560Z,2.47
2022-12-04T16:40:07.604Z,2.43
2022-12-04T16:42:37.520Z,2.36
2022-12-04T16:45:23.419Z,2.32
2022-12-04T16:47:53.528Z,2.26
2022-12-04T16:50:23.539Z,2.23
2022-12-04T16:52:54.005Z,2.21
2022-12-04T16:55:36.309Z,2.20
2022-12-04T16:58:09.981Z,2.22
2022-12-04T17:00:43.937Z,2.23
2022-12-04T17:03:31.475Z,2.24
2022-12-04T17:06:04.170Z,2.21
2022-12-04T17:08:34.432Z,2.18
2022-12-04T17:11:04.088Z,2.14
2022-12-04T17:13:37.957Z,2.13
2022-12-04T17:16:15.077Z,2.11
2022-12-04T17:18:45.609Z,2.08
2022-12-04T17:21:15.875Z,2.05
2022-12-04T17:23:46.259Z,2.03
2022-12-04T17:26:16.675Z,2.00
2022-12-04T17:28:51.338Z,1.98
2022-12-04T17:31:31.024Z,1.94
2022-12-04T17:34:00.689Z,1.90
2022-12-04T17:36:31.053Z,1.90
2022-12-04T17:39:04.795Z,1.90
2022-12-04T17:41:36.582Z,1.89
2022-12-04T17:44:06.584Z,1.90
2022-12-04T17:46:37.249Z,1.87
2022-12-04T17:49:07.719Z,1.84
2022-12-04T17:51:38.143Z,1.80
2022-12-04T17:54:09.041Z,1.78
2022-12-04T17:56:43.297Z,1.76
2022-12-04T17:59:16.556Z,1.76
2022-12-04T18:01:46.921Z,1.77
2022-12-04T18:04:19.793Z,1.79
2022-12-04T18:06:50.377Z,1.78
2022-12-04T18:09:20.876Z,1.78
2022-12-04T18:11:51.259Z,1.76
2022-12-04T18:14:24.269Z,1.74
2022-12-04T18:16:58.597Z,1.73
2022-12-04T18:19:29.603Z,1.72
2022-12-04T18:22:00.189Z,1.73
2022-12-04T18:24:30.201Z,1.75
2022-12-04T18:27:00.121Z,1.77
2022-12-04T18:29:30.574Z,1.77
2022-12-04T18:32:01.124Z,1.73
2022-12-04T18:34:32.316Z,1.70
2022-12-04T18:37:02.547Z,1.67
2022-12-04T18:39:32.896Z,1.64
2022-12-04T18:42:03.211Z,1.61
2022-12-04T18:44:33.484Z,1.60
2022-12-04T18:47:03.829Z,1.58
2022-12-04T18:49:34.293Z,1.57
2022-12-04T18:52:04.626Z,1.55
2022-12-04T18:54:34.905Z,1.52
2022-12-04T18:57:05.044Z,1.51
2022-12-04T18:59:36.844Z,1.49
2022-12-04T19:02:07.121Z,1.48
2022-12-04T19:04:37.192Z,1.47
2022-12-04T19:07:07.086Z,1.44
2022-12-04T19:10:09.285Z,1.43
2022-12-04T19:12:27.116Z,1.42
2022-12-04T19:14:56.995Z,1.41
2022-12-04T19:17:27.192Z,1.38
2022-12-04T19:19:56.266Z,1.36
2022-12-04T19:22:26.644Z,1.35
2022-12-04T19:24:56.596Z,1.33
2022-12-04T19:27:28.048Z,1.32
2022-12-04T19:29:58.364Z,1.28
2022-12-04T19:32:28.785Z,1.22
2022-12-04T19:34:58.840Z,1.20
2022-12-04T19:37:28.875Z,1.17
2022-12-04T19:39:59.211Z,1.13
2022-12-04T19:42:31.541Z,1.11
2022-12-04T19:45:01.953Z,1.07
2022-12-04T19:47:33.058Z,1.05
2022-12-04T19:50:03.206Z,1.04
2022-12-04T19:52:36.783Z,1.01
2022-12-04T19:55:09.383Z,0.98
2022-12-04T19:57:39.617Z,0.93
2022-12-04T20:00:10.638Z,0.89
2022-12-04T20:02:43.896Z,0.86
2022-12-04T20:05:13.948Z,0.85
2022-12-04T20:07:44.231Z,0.83
2022-12-04T20:10:14.286Z,0.77
2022-12-04T20:12:44.570Z,0.71
2022-12-04T20:15:14.587Z,0.68
2022-12-04T20:17:44.621Z,0.67
2022-12-04T20:20:14.444Z,0.65
2022-12-04T20:22:44.748Z,0.64
2022-12-04T20:25:14.423Z,0.63
2022-12-04T20:27:44.621Z,0.60
2022-12-04T20:30:14.515Z,0.58
2022-12-04T20:32:44.763Z,0.58
2022-12-04T20:35:15.225Z,0.55
2022-12-04T20:37:45.455Z,0.50
2022-12-04T20:40:15.577Z,0.45
2022-12-04T20:42:45.746Z,0.40
2022-12-04T20:45:15.847Z,0.39
2022-12-04T20:47:46.290Z,0.37
2022-12-04T20:50:16.660Z,0.35
2022-12-04T20:52:46.523Z,0.34
2022-12-04T20:55:16.644Z,0.35
2022-12-04T20:57:47.086Z,0.35
2022-12-04T21:00:18.115Z,0.33
2022-12-04T21:02:46.998Z,0.31
2022-12-04T21:05:16.818Z,0.28
2022-12-04T21:07:47.199Z,0.26
2022-12-04T21:10:17.394Z,0.26
2022-12-04T21:13:07.290Z,0.26
2022-12-04T21:15:57.377Z,0.26
2022-12-04T21:18:27.557Z,0.25
2022-12-04T21:20:56.498Z,0.24
2022-12-04T21:23:25.339Z,0.21
2022-12-04T21:25:58.010Z,0.18
2022-12-04T21:28:27.925Z,0.16
2022-12-04T21:31:07.485Z,0.14
2022-12-04T21:33:37.974Z,0.11
2022-12-04T21:36:11.183Z,0.09
2022-12-04T21:38:41.557Z,0.03
2022-12-04T21:41:33.076Z,-0.01
2022-12-04T21:44:07.186Z,-0.03
2022-12-04T21:46:37.593Z,-0.03
2022-12-04T21:49:07.534Z,-0.04
2022-12-04T21:51:56.780Z,-0.05
2022-12-04T21:54:28.780Z,-0.10
2022-12-04T21:56:59.294Z,-0.13
2022-12-04T21:59:29.111Z,-0.15
2022-12-04T22:01:59.697Z,-0.14
2022-12-04T22:04:29.849Z,-0.15
2022-12-04T22:06:59.911Z,-0.15
2022-12-04T22:09:29.865Z,-0.17
2022-12-04T22:11:59.936Z,-0.19
2022-12-04T22:14:29.996Z,-0.19
2022-12-04T22:17:00.450Z,-0.19
2022-12-04T22:19:30.856Z,-0.19
2022-12-04T22:22:00.937Z,-0.23
2022-12-04T22:24:31.007Z,-0.25
2022-12-04T22:27:00.339Z,-0.28
2022-12-04T22:32:21.598Z,-0.34
2022-12-04T22:34:52.041Z,-0.34
2022-12-04T22:37:22.439Z,-0.32
2022-12-04T22:39:52.702Z,-0.30
2022-12-04T22:42:23.058Z,-0.28
2022-12-04T22:44:53.317Z,-0.27
2022-12-04T22:47:23.597Z,-0.27
2022-12-04T22:49:53.577Z,-0.26
2022-12-04T22:52:23.932Z,-0.23
2022-12-04T22:54:53.794Z,-0.19
2022-12-04T22:57:24.471Z,-0.19
2022-12-04T22:59:54.707Z,-0.22
2022-12-04T23:02:25.268Z,-0.22
2022-12-04T23:04:55.636Z,-0.23
2022-12-04T23:07:25.724Z,-0.23
2022-12-04T23:09:56.154Z,-0.22
2022-12-04T23:12:28.039Z,-0.20
2022-12-04T23:14:57.944Z,-0.18
2022-12-04T23:17:28.502Z,-0.20
2022-12-04T23:19:58.499Z,-0.19
2022-12-04T23:22:29.087Z,-0.17
2022-12-04T23:24:59.417Z,-0.14
2022-12-04T23:27:31.945Z,-0.12
2022-12-04T23:30:02.945Z,-0.08
2022-12-04T23:32:33.104Z,-0.04
2022-12-04T23:35:03.082Z,-0.01
2022-12-04T23:37:33.027Z,0.05
2022-12-04T23:40:04.565Z,0.09
2022-12-04T23:42:34.097Z,0.15
2022-12-04T23:45:07.655Z,0.18
2022-12-04T23:47:37.496Z,0.21
2022-12-04T23:50:07.282Z,0.23
2022-12-04T23:52:37.304Z,0.25
2022-12-04T23:55:08.329Z,0.25
2022-12-04T23:57:37.148Z,0.25
